sensor_id;sensor_type;location;lat;lon;timestamp;pressure;altitude;pressure_sealevel;temperature;humidity
75298;BME280;63896;45.990;18.688;2023-09-19T00:01:14;100316.84;;;22.43;77.17
75298;BME280;63896;45.990;18.688;2023-09-19T00:04:17;100312.31;;;22.38;77.30
75298;BME280;63896;45.990;18.688;2023-09-19T00:07:22;100313.69;;;22.36;77.86
75298;BME280;63896;45.990;18.688;2023-09-19T00:10:26;100311.56;;;22.32;77.62
75298;BME280;63896;45.990;18.688;2023-09-19T00:13:29;100316.75;;;22.29;78.26
75298;BME280;63896;45.990;18.688;2023-09-19T00:16:33;100313.56;;;22.27;78.65
75298;BME280;63896;45.990;18.688;2023-09-19T00:19:36;100324.00;;;22.33;78.48
75298;BME280;63896;45.990;18.688;2023-09-19T00:22:41;100325.97;;;22.28;78.59
75298;BME280;63896;45.990;18.688;2023-09-19T00:25:47;100328.69;;;22.28;78.85
75298;BME280;63896;45.990;18.688;2023-09-19T00:28:52;100331.25;;;22.19;78.99
75298;BME280;63896;45.990;18.688;2023-09-19T00:31:56;100328.31;;;22.16;79.64
75298;BME280;63896;45.990;18.688;2023-09-19T00:35:01;100337.28;;;22.11;80.29
75298;BME280;63896;45.990;18.688;2023-09-19T00:38:05;100339.63;;;22.18;80.08
75298;BME280;63896;45.990;18.688;2023-09-19T00:41:09;100337.50;;;22.15;80.35
75298;BME280;63896;45.990;18.688;2023-09-19T00:44:12;100333.19;;;22.14;80.75
75298;BME280;63896;45.990;18.688;2023-09-19T00:47:15;100338.38;;;22.10;80.90
75298;BME280;63896;45.990;18.688;2023-09-19T00:50:23;100331.72;;;22.21;80.66
75298;BME280;63896;45.990;18.688;2023-09-19T00:53:31;100335.41;;;22.12;80.79
75298;BME280;63896;45.990;18.688;2023-09-19T00:56:36;100340.22;;;22.15;81.42
75298;BME280;63896;45.990;18.688;2023-09-19T00:59:43;100331.53;;;22.18;81.42
75298;BME280;63896;45.990;18.688;2023-09-19T01:02:47;100326.63;;;22.20;81.35
75298;BME280;63896;45.990;18.688;2023-09-19T01:05:51;100318.00;;;22.18;81.62
75298;BME280;63896;45.990;18.688;2023-09-19T01:08:54;100328.66;;;22.09;82.49
75298;BME280;63896;45.990;18.688;2023-09-19T01:12:01;100331.00;;;21.97;83.46
75298;BME280;63896;45.990;18.688;2023-09-19T01:21:57;100314.59;;;21.89;85.18
75298;BME280;63896;45.990;18.688;2023-09-19T01:28:27;100310.66;;;21.81;85.08
75298;BME280;63896;45.990;18.688;2023-09-19T01:31:33;100304.94;;;21.82;84.96
75298;BME280;63896;45.990;18.688;2023-09-19T01:37:52;100296.94;;;21.77;85.35
75298;BME280;63896;45.990;18.688;2023-09-19T01:41:07;100300.13;;;21.79;85.43
75298;BME280;63896;45.990;18.688;2023-09-19T01:44:24;100305.59;;;21.74;85.85
75298;BME280;63896;45.990;18.688;2023-09-19T01:47:33;100302.38;;;21.72;86.16
75298;BME280;63896;45.990;18.688;2023-09-19T01:50:43;100305.38;;;21.71;86.27
75298;BME280;63896;45.990;18.688;2023-09-19T01:54:03;100308.44;;;21.64;87.21
75298;BME280;63896;45.990;18.688;2023-09-19T01:57:27;100310.16;;;21.55;87.93
75298;BME280;63896;45.990;18.688;2023-09-19T02:00:34;100307.22;;;21.52;88.42
75298;BME280;63896;45.990;18.688;2023-09-19T02:03:39;100309.78;;;21.43;88.93
75298;BME280;63896;45.990;18.688;2023-09-19T02:06:43;100314.59;;;21.46;89.15
75298;BME280;63896;45.990;18.688;2023-09-19T02:09:47;100302.19;;;21.45;89.15
75298;BME280;63896;45.990;18.688;2023-09-19T02:12:50;100305.50;;;21.37;89.82
75298;BME280;63896;45.990;18.688;2023-09-19T02:15:53;100300.69;;;21.34;90.41
75298;BME280;63896;45.990;18.688;2023-09-19T02:18:56;100304.84;;;21.26;90.99
75298;BME280;63896;45.990;18.688;2023-09-19T02:22:00;100305.41;;;21.23;91.25
75298;BME280;63896;45.990;18.688;2023-09-19T02:25:06;100307.31;;;21.23;91.47
75298;BME280;63896;45.990;18.688;2023-09-19T02:28:11;100304.06;;;21.21;91.71
75298;BME280;63896;45.990;18.688;2023-09-19T02:31:15;100307.13;;;21.14;92.16
75298;BME280;63896;45.990;18.688;2023-09-19T02:34:19;100310.75;;;21.00;93.54
75298;BME280;63896;45.990;18.688;2023-09-19T02:37:22;100310.03;;;20.89;94.29
75298;BME280;63896;45.990;18.688;2023-09-19T02:40:25;100306.84;;;20.82;95.12
75298;BME280;63896;45.990;18.688;2023-09-19T02:43:29;100307.78;;;20.67;96.50
75298;BME280;63896;45.990;18.688;2023-09-19T02:46:32;100305.41;;;20.66;96.71
75298;BME280;63896;45.990;18.688;2023-09-19T02:49:34;100306.53;;;20.55;97.58
75298;BME280;63896;45.990;18.688;2023-09-19T02:52:41;100310.34;;;20.54;98.11
75298;BME280;63896;45.990;18.688;2023-09-19T02:55:49;100311.78;;;20.41;99.25
75298;BME280;63896;45.990;18.688;2023-09-19T02:58:52;100303.97;;;20.39;99.63
75298;BME280;63896;45.990;18.688;2023-09-19T03:01:57;100306.38;;;20.41;99.56
75298;BME280;63896;45.990;18.688;2023-09-19T03:05:01;100303.78;;;20.31;100.00
75298;BME280;63896;45.990;18.688;2023-09-19T03:08:07;100306.72;;;20.24;100.00
75298;BME280;63896;45.990;18.688;2023-09-19T03:11:10;100304.38;;;20.13;100.00
75298;BME280;63896;45.990;18.688;2023-09-19T03:14:16;100310.91;;;20.07;100.00
75298;BME280;63896;45.990;18.688;2023-09-19T03:17:20;100315.47;;;20.06;100.00
75298;BME280;63896;45.990;18.688;2023-09-19T03:20:24;100300.84;;;20.17;100.00
75298;BME280;63896;45.990;18.688;2023-09-19T03:23:28;100304.09;;;20.19;100.00
75298;BME280;63896;45.990;18.688;2023-09-19T03:26:31;100304.09;;;20.19;100.00
75298;BME280;63896;45.990;18.688;2023-09-19T03:29:35;100299.31;;;20.06;100.00
75298;BME280;63896;45.990;18.688;2023-09-19T03:32:47;100306.34;;;20.02;100.00
75298;BME280;63896;45.990;18.688;2023-09-19T03:35:54;100305.06;;;19.89;100.00
75298;BME280;63896;45.990;18.688;2023-09-19T03:38:57;100297.81;;;19.85;100.00
75298;BME280;63896;45.990;18.688;2023-09-19T03:42:02;100302.84;;;19.96;100.00
75298;BME280;63896;45.990;18.688;2023-09-19T03:45:07;100302.41;;;19.84;100.00
75298;BME280;63896;45.990;18.688;2023-09-19T03:48:17;100301.06;;;19.82;100.00
75298;BME280;63896;45.990;18.688;2023-09-19T03:51:21;100296.78;;;19.76;100.00
75298;BME280;63896;45.990;18.688;2023-09-19T03:54:24;100288.22;;;19.69;100.00
75298;BME280;63896;45.990;18.688;2023-09-19T03:57:27;100295.72;;;19.72;100.00
75298;BME280;63896;45.990;18.688;2023-09-19T04:00:30;100293.84;;;19.72;100.00
75298;BME280;63896;45.990;18.688;2023-09-19T04:03:34;100290.09;;;19.68;100.00
75298;BME280;63896;45.990;18.688;2023-09-19T04:06:48;100290.41;;;19.62;100.00
75298;BME280;63896;45.990;18.688;2023-09-19T04:09:50;100299.56;;;19.61;100.00
75298;BME280;63896;45.990;18.688;2023-09-19T04:12:56;100299.56;;;19.61;100.00
75298;BME280;63896;45.990;18.688;2023-09-19T04:15:59;100293.63;;;19.59;100.00
75298;BME280;63896;45.990;18.688;2023-09-19T04:19:02;100306.03;;;19.55;100.00
75298;BME280;63896;45.990;18.688;2023-09-19T04:22:06;100300.63;;;19.55;100.00
75298;BME280;63896;45.990;18.688;2023-09-19T04:25:09;100298.25;;;19.48;100.00
75298;BME280;63896;45.990;18.688;2023-09-19T04:28:12;100296.91;;;19.40;100.00
75298;BME280;63896;45.990;18.688;2023-09-19T04:31:15;100296.09;;;19.40;100.00
75298;BME280;63896;45.990;18.688;2023-09-19T04:34:19;100304.47;;;19.33;100.00
75298;BME280;63896;45.990;18.688;2023-09-19T04:37:22;100306.91;;;19.30;100.00
75298;BME280;63896;45.990;18.688;2023-09-19T04:40:25;100306.63;;;19.26;100.00
75298;BME280;63896;45.990;18.688;2023-09-19T04:43:29;100310.66;;;19.34;100.00
75298;BME280;63896;45.990;18.688;2023-09-19T04:46:36;100314.97;;;19.30;100.00
75298;BME280;63896;45.990;18.688;2023-09-19T04:49:39;100313.34;;;19.29;100.00
75298;BME280;63896;45.990;18.688;2023-09-19T04:52:43;100309.28;;;19.31;100.00
75298;BME280;63896;45.990;18.688;2023-09-19T04:55:51;100312.78;;;19.37;100.00
75298;BME280;63896;45.990;18.688;2023-09-19T04:58:55;100315.72;;;19.40;100.00
75298;BME280;63896;45.990;18.688;2023-09-19T05:01:58;100313.28;;;19.54;100.00
75298;BME280;63896;45.990;18.688;2023-09-19T05:05:01;100309.50;;;19.65;100.00
75298;BME280;63896;45.990;18.688;2023-09-19T05:08:04;100309.19;;;19.77;100.00
75298;BME280;63896;45.990;18.688;2023-09-19T05:11:08;100310.72;;;19.88;100.00
75298;BME280;63896;45.990;18.688;2023-09-19T05:14:11;100306.34;;;19.97;100.00
75298;BME280;63896;45.990;18.688;2023-09-19T05:17:14;100312.53;;;20.03;100.00
75298;BME280;63896;45.990;18.688;2023-09-19T05:20:19;100303.88;;;20.11;100.00
75298;BME280;63896;45.990;18.688;2023-09-19T05:23:40;100316.72;;;20.29;100.00
75298;BME280;63896;45.990;18.688;2023-09-19T05:26:44;100310.13;;;20.45;100.00
75298;BME280;63896;45.990;18.688;2023-09-19T05:29:48;100310.41;;;20.43;100.00
75298;BME280;63896;45.990;18.688;2023-09-19T05:32:53;100308.31;;;20.69;100.00
75298;BME280;63896;45.990;18.688;2023-09-19T05:35:57;100319.78;;;20.85;100.00
75298;BME280;63896;45.990;18.688;2023-09-19T05:39:00;100323.81;;;20.87;100.00
75298;BME280;63896;45.990;18.688;2023-09-19T05:42:09;100323.53;;;20.89;100.00
75298;BME280;63896;45.990;18.688;2023-09-19T05:45:16;100319.09;;;20.98;100.00
75298;BME280;63896;45.990;18.688;2023-09-19T05:48:27;100325.53;;;21.02;100.00
75298;BME280;63896;45.990;18.688;2023-09-19T05:51:30;100315.28;;;21.04;99.72
75298;BME280;63896;45.990;18.688;2023-09-19T05:54:33;100319.44;;;21.20;99.19
75298;BME280;63896;45.990;18.688;2023-09-19T05:57:37;100327.66;;;21.39;97.98
75298;BME280;63896;45.990;18.688;2023-09-19T06:00:45;100324.59;;;21.46;97.68
75298;BME280;63896;45.990;18.688;2023-09-19T06:03:50;100331.06;;;21.92;95.00
75298;BME280;63896;45.990;18.688;2023-09-19T06:06:55;100328.66;;;22.09;93.98
75298;BME280;63896;45.990;18.688;2023-09-19T06:09:58;100331.66;;;22.45;92.31
75298;BME280;63896;45.990;18.688;2023-09-19T06:13:04;100335.09;;;23.15;88.40
75298;BME280;63896;45.990;18.688;2023-09-19T06:16:08;100337.06;;;22.96;89.27
75298;BME280;63896;45.990;18.688;2023-09-19T06:19:12;100331.97;;;23.54;86.34
75298;BME280;63896;45.990;18.688;2023-09-19T06:22:16;100332.13;;;23.31;86.27
75298;BME280;63896;45.990;18.688;2023-09-19T06:25:21;100336.13;;;23.33;87.59
75298;BME280;63896;45.990;18.688;2023-09-19T06:28:25;100335.78;;;23.07;88.11
75298;BME280;63896;45.990;18.688;2023-09-19T06:31:30;100349.44;;;23.16;87.81
75298;BME280;63896;45.990;18.688;2023-09-19T06:34:34;100348.56;;;23.20;87.93
75298;BME280;63896;45.990;18.688;2023-09-19T06:37:37;100346.06;;;23.24;87.74
75298;BME280;63896;45.990;18.688;2023-09-19T06:40:43;100352.97;;;23.30;86.95
75298;BME280;63896;45.990;18.688;2023-09-19T06:43:46;100352.00;;;23.40;86.69
75298;BME280;63896;45.990;18.688;2023-09-19T06:46:55;100358.63;;;23.61;85.87
75298;BME280;63896;45.990;18.688;2023-09-19T06:49:58;100368.16;;;23.72;84.87
75298;BME280;63896;45.990;18.688;2023-09-19T06:53:01;100367.78;;;23.79;85.21
75298;BME280;63896;45.990;18.688;2023-09-19T06:56:07;100369.06;;;23.81;84.83
75298;BME280;63896;45.990;18.688;2023-09-19T06:59:09;100376.59;;;23.98;83.80
75298;BME280;63896;45.990;18.688;2023-09-19T07:02:12;100384.03;;;23.92;84.41
75298;BME280;63896;45.990;18.688;2023-09-19T07:05:16;100405.81;;;24.01;84.61
75298;BME280;63896;45.990;18.688;2023-09-19T07:08:21;100434.72;;;23.78;85.36
75298;BME280;63896;45.990;18.688;2023-09-19T07:11:24;100450.56;;;23.71;86.04
75298;BME280;63896;45.990;18.688;2023-09-19T07:14:27;100451.75;;;23.65;86.50
75298;BME280;63896;45.990;18.688;2023-09-19T07:17:30;100466.50;;;23.59;86.79
75298;BME280;63896;45.990;18.688;2023-09-19T07:20:35;100475.53;;;23.54;87.46
75298;BME280;63896;45.990;18.688;2023-09-19T07:23:38;100476.25;;;23.41;85.58
75298;BME280;63896;45.990;18.688;2023-09-19T07:26:42;100493.47;;;23.50;83.60
75298;BME280;63896;45.990;18.688;2023-09-19T07:29:48;100506.63;;;23.57;83.52
75298;BME280;63896;45.990;18.688;2023-09-19T07:32:54;100515.28;;;23.59;82.52
75298;BME280;63896;45.990;18.688;2023-09-19T07:36:09;100511.56;;;23.68;81.98
75298;BME280;63896;45.990;18.688;2023-09-19T07:39:13;100526.25;;;23.81;82.27
75298;BME280;63896;45.990;18.688;2023-09-19T07:42:26;100536.28;;;23.81;80.16
75298;BME280;63896;45.990;18.688;2023-09-19T07:45:29;100551.25;;;23.92;79.79
75298;BME280;63896;45.990;18.688;2023-09-19T07:48:35;100557.75;;;24.37;77.76
75298;BME280;63896;45.990;18.688;2023-09-19T07:51:40;100562.47;;;24.45;76.86
75298;BME280;63896;45.990;18.688;2023-09-19T07:54:47;100582.84;;;24.15;76.13
75298;BME280;63896;45.990;18.688;2023-09-19T07:57:53;100587.91;;;23.89;76.77
75298;BME280;63896;45.990;18.688;2023-09-19T08:00:56;100592.69;;;23.79;76.17
75298;BME280;63896;45.990;18.688;2023-09-19T08:03:59;100599.75;;;23.93;75.78
75298;BME280;63896;45.990;18.688;2023-09-19T08:07:02;100622.75;;;24.42;72.33
75298;BME280;63896;45.990;18.688;2023-09-19T08:10:07;100614.63;;;24.42;71.55
75298;BME280;63896;45.990;18.688;2023-09-19T08:13:15;100613.69;;;23.87;73.46
75298;BME280;63896;45.990;18.688;2023-09-19T08:16:20;100613.78;;;24.14;72.68
75298;BME280;63896;45.990;18.688;2023-09-19T08:19:29;100620.34;;;24.27;71.48
75298;BME280;63896;45.990;18.688;2023-09-19T08:22:37;100634.53;;;25.05;67.96
75298;BME280;63896;45.990;18.688;2023-09-19T08:25:40;100639.56;;;26.15;63.56
75298;BME280;63896;45.990;18.688;2023-09-19T08:28:43;100635.59;;;26.43;61.65
75298;BME280;63896;45.990;18.688;2023-09-19T08:31:46;100647.34;;;26.21;61.74
75298;BME280;63896;45.990;18.688;2023-09-19T08:34:52;100638.56;;;27.20;58.11
75298;BME280;63896;45.990;18.688;2023-09-19T08:37:55;100647.41;;;26.30;60.72
75298;BME280;63896;45.990;18.688;2023-09-19T08:41:00;100661.97;;;25.67;62.49
75298;BME280;63896;45.990;18.688;2023-09-19T08:44:03;100649.28;;;25.27;64.01
75298;BME280;63896;45.990;18.688;2023-09-19T08:47:13;100670.16;;;24.17;66.24
75298;BME280;63896;45.990;18.688;2023-09-19T08:50:39;100672.56;;;24.00;67.19
75298;BME280;63896;45.990;18.688;2023-09-19T08:53:52;100664.69;;;23.85;68.19
75298;BME280;63896;45.990;18.688;2023-09-19T08:57:06;100652.38;;;24.06;68.17
75298;BME280;63896;45.990;18.688;2023-09-19T09:00:15;100649.13;;;25.59;62.23
75298;BME280;63896;45.990;18.688;2023-09-19T09:03:20;100651.16;;;25.40;62.73
75298;BME280;63896;45.990;18.688;2023-09-19T09:06:25;100653.34;;;25.02;62.92
75298;BME280;63896;45.990;18.688;2023-09-19T09:09:30;100653.00;;;25.31;62.18
75298;BME280;63896;45.990;18.688;2023-09-19T09:12:37;100646.72;;;25.44;61.71
75298;BME280;63896;45.990;18.688;2023-09-19T09:15:45;100647.97;;;25.24;62.15
75298;BME280;63896;45.990;18.688;2023-09-19T09:18:49;100645.41;;;25.99;59.74
75298;BME280;63896;45.990;18.688;2023-09-19T09:22:06;100655.97;;;26.23;58.37
75298;BME280;63896;45.990;18.688;2023-09-19T09:25:09;100655.22;;;28.30;53.45
75298;BME280;63896;45.990;18.688;2023-09-19T09:28:19;100647.19;;;29.93;48.24
75298;BME280;63896;45.990;18.688;2023-09-19T09:31:23;100652.09;;;29.78;45.19
75298;BME280;63896;45.990;18.688;2023-09-19T09:34:33;100648.31;;;28.79;46.12
75298;BME280;63896;45.990;18.688;2023-09-19T09:38:04;100649.59;;;31.24;41.54
75298;BME280;63896;45.990;18.688;2023-09-19T09:41:36;100657.72;;;32.79;37.64
75298;BME280;63896;45.990;18.688;2023-09-19T09:44:40;100661.25;;;32.95;36.85
75298;BME280;63896;45.990;18.688;2023-09-19T09:47:47;100666.06;;;32.35;37.39
75298;BME280;63896;45.990;18.688;2023-09-19T09:50:58;100654.97;;;31.88;37.41
75298;BME280;63896;45.990;18.688;2023-09-19T09:54:17;100650.66;;;32.78;36.33
75298;BME280;63896;45.990;18.688;2023-09-19T09:57:23;100645.94;;;31.60;37.55
75298;BME280;63896;45.990;18.688;2023-09-19T10:00:28;100644.59;;;32.25;36.44
75298;BME280;63896;45.990;18.688;2023-09-19T10:03:45;100648.34;;;32.48;36.89
75298;BME280;63896;45.990;18.688;2023-09-19T10:06:51;100662.53;;;32.35;36.40
75298;BME280;63896;45.990;18.688;2023-09-19T10:09:56;100667.97;;;30.75;39.60
75298;BME280;63896;45.990;18.688;2023-09-19T10:13:08;100659.28;;;31.74;37.32
75298;BME280;63896;45.990;18.688;2023-09-19T10:16:16;100657.09;;;31.39;38.44
75298;BME280;63896;45.990;18.688;2023-09-19T10:19:30;100661.97;;;31.46;38.60
75298;BME280;63896;45.990;18.688;2023-09-19T10:22:37;100664.66;;;30.94;39.25
75298;BME280;63896;45.990;18.688;2023-09-19T10:25:44;100659.25;;;29.92;41.17
75298;BME280;63896;45.990;18.688;2023-09-19T10:28:50;100663.53;;;29.39;42.25
75298;BME280;63896;45.990;18.688;2023-09-19T10:31:56;100662.34;;;30.35;40.11
75298;BME280;63896;45.990;18.688;2023-09-19T10:35:02;100664.38;;;29.93;40.75
75298;BME280;63896;45.990;18.688;2023-09-19T10:38:10;100652.91;;;33.80;34.23
75298;BME280;63896;45.990;18.688;2023-09-19T10:41:15;100652.00;;;34.37;32.04
75298;BME280;63896;45.990;18.688;2023-09-19T10:44:24;100644.06;;;34.55;31.71
75298;BME280;63896;45.990;18.688;2023-09-19T10:47:31;100652.34;;;31.92;36.33
75298;BME280;63896;45.990;18.688;2023-09-19T10:51:05;100654.91;;;30.23;38.74
75298;BME280;63896;45.990;18.688;2023-09-19T10:54:11;100649.47;;;28.99;41.91
75298;BME280;63896;45.990;18.688;2023-09-19T10:57:22;100643.16;;;28.78;42.63
75298;BME280;63896;45.990;18.688;2023-09-19T11:00:30;100638.16;;;28.42;42.58
75298;BME280;63896;45.990;18.688;2023-09-19T11:07:57;100628.78;;;28.14;44.51
75298;BME280;63896;45.990;18.688;2023-09-19T11:11:00;100619.53;;;28.44;42.16
75298;BME280;63896;45.990;18.688;2023-09-19T11:14:28;100623.97;;;27.85;43.86
75298;BME280;63896;45.990;18.688;2023-09-19T11:18:03;100633.31;;;28.85;42.45
75298;BME280;63896;45.990;18.688;2023-09-19T11:21:53;100629.19;;;30.04;40.20
75298;BME280;63896;45.990;18.688;2023-09-19T11:36:16;100626.34;;;36.05;29.71
75298;BME280;63896;45.990;18.688;2023-09-19T11:39:30;100614.72;;;36.77;28.10
75298;BME280;63896;45.990;18.688;2023-09-19T11:42:48;100608.72;;;36.64;27.62
75298;BME280;63896;45.990;18.688;2023-09-19T11:49:08;100599.78;;;36.92;27.43
75298;BME280;63896;45.990;18.688;2023-09-19T11:52:21;100595.31;;;36.70;27.09
75298;BME280;63896;45.990;18.688;2023-09-19T11:55:28;100580.50;;;36.01;28.16
75298;BME280;63896;45.990;18.688;2023-09-19T11:58:36;100574.72;;;35.72;27.89
75298;BME280;63896;45.990;18.688;2023-09-19T12:01:50;100568.78;;;36.58;27.20
75298;BME280;63896;45.990;18.688;2023-09-19T12:05:00;100572.34;;;36.59;26.50
75298;BME280;63896;45.990;18.688;2023-09-19T12:08:04;100566.03;;;37.48;24.98
75298;BME280;63896;45.990;18.688;2023-09-19T12:11:14;100556.25;;;37.76;25.06
75298;BME280;63896;45.990;18.688;2023-09-19T12:14:26;100568.16;;;38.15;24.14
75298;BME280;63896;45.990;18.688;2023-09-19T12:17:39;100566.53;;;38.64;23.13
75298;BME280;63896;45.990;18.688;2023-09-19T12:20:54;100572.88;;;37.86;23.48
75298;BME280;63896;45.990;18.688;2023-09-19T12:24:11;100575.19;;;37.56;24.00
75298;BME280;63896;45.990;18.688;2023-09-19T12:27:16;100577.34;;;37.04;25.78
75298;BME280;63896;45.990;18.688;2023-09-19T12:30:19;100574.84;;;35.16;27.91
75298;BME280;63896;45.990;18.688;2023-09-19T12:33:29;100571.84;;;34.46;29.61
75298;BME280;63896;45.990;18.688;2023-09-19T12:36:32;100574.06;;;35.16;28.91
75298;BME280;63896;45.990;18.688;2023-09-19T12:39:44;100580.72;;;36.18;27.92
75298;BME280;63896;45.990;18.688;2023-09-19T12:42:53;100572.63;;;35.99;27.86
75298;BME280;63896;45.990;18.688;2023-09-19T12:45:58;100585.69;;;36.06;27.87
75298;BME280;63896;45.990;18.688;2023-09-19T12:49:17;100589.94;;;35.26;28.60
75298;BME280;63896;45.990;18.688;2023-09-19T12:52:21;100583.50;;;35.15;27.66
75298;BME280;63896;45.990;18.688;2023-09-19T12:55:25;100583.66;;;34.47;29.06
75298;BME280;63896;45.990;18.688;2023-09-19T12:58:32;100581.34;;;34.26;30.02
75298;BME280;63896;45.990;18.688;2023-09-19T13:01:35;100586.50;;;34.27;30.09
75298;BME280;63896;45.990;18.688;2023-09-19T13:04:52;100578.28;;;33.09;31.62
75298;BME280;63896;45.990;18.688;2023-09-19T13:07:55;100584.66;;;31.28;33.70
75298;BME280;63896;45.990;18.688;2023-09-19T13:14:19;100587.56;;;31.19;33.55
75298;BME280;63896;45.990;18.688;2023-09-19T13:17:23;100595.31;;;32.01;32.11
75298;BME280;63896;45.990;18.688;2023-09-19T13:20:26;100588.59;;;33.50;29.79
75298;BME280;63896;45.990;18.688;2023-09-19T13:23:35;100576.47;;;34.91;27.87
75298;BME280;63896;45.990;18.688;2023-09-19T13:26:39;100571.06;;;34.72;28.03
75298;BME280;63896;45.990;18.688;2023-09-19T13:29:42;100580.50;;;34.22;28.50
75298;BME280;63896;45.990;18.688;2023-09-19T13:32:45;100581.56;;;33.14;30.12
75298;BME280;63896;45.990;18.688;2023-09-19T13:35:50;100570.53;;;32.44;31.15
75298;BME280;63896;45.990;18.688;2023-09-19T13:38:52;100570.19;;;32.62;30.84
75298;BME280;63896;45.990;18.688;2023-09-19T13:41:55;100560.69;;;32.75;30.85
75298;BME280;63896;45.990;18.688;2023-09-19T13:44:59;100557.41;;;34.07;29.30
75298;BME280;63896;45.990;18.688;2023-09-19T13:48:01;100548.94;;;34.95;27.20
75298;BME280;63896;45.990;18.688;2023-09-19T13:51:04;100551.00;;;35.01;27.15
75298;BME280;63896;45.990;18.688;2023-09-19T13:54:07;100549.56;;;35.81;26.52
75298;BME280;63896;45.990;18.688;2023-09-19T13:57:10;100549.16;;;35.46;25.96
75298;BME280;63896;45.990;18.688;2023-09-19T14:00:13;100543.31;;;34.35;27.10
75298;BME280;63896;45.990;18.688;2023-09-19T14:03:21;100542.25;;;34.17;28.01
75298;BME280;63896;45.990;18.688;2023-09-19T14:06:24;100549.09;;;34.53;27.81
75298;BME280;63896;45.990;18.688;2023-09-19T14:09:27;100541.25;;;34.81;27.39
75298;BME280;63896;45.990;18.688;2023-09-19T14:12:30;100540.06;;;34.78;27.48
75298;BME280;63896;45.990;18.688;2023-09-19T14:15:37;100549.81;;;33.78;29.72
75298;BME280;63896;45.990;18.688;2023-09-19T14:18:40;100533.03;;;33.44;29.47
75298;BME280;63896;45.990;18.688;2023-09-19T14:21:44;100535.88;;;33.48;30.72
75298;BME280;63896;45.990;18.688;2023-09-19T14:24:47;100535.25;;;32.62;31.51
75298;BME280;63896;45.990;18.688;2023-09-19T14:27:50;100533.22;;;32.43;31.74
75298;BME280;63896;45.990;18.688;2023-09-19T14:30:53;100532.50;;;31.68;33.24
75298;BME280;63896;45.990;18.688;2023-09-19T14:33:57;100542.47;;;31.33;34.57
75298;BME280;63896;45.990;18.688;2023-09-19T14:37:01;100538.66;;;30.33;36.50
75298;BME280;63896;45.990;18.688;2023-09-19T14:40:05;100537.94;;;30.00;38.01
75298;BME280;63896;45.990;18.688;2023-09-19T14:43:11;100544.88;;;29.52;39.54
75298;BME280;63896;45.990;18.688;2023-09-19T14:46:14;100545.28;;;29.21;40.00
75298;BME280;63896;45.990;18.688;2023-09-19T14:49:17;100554.50;;;29.17;40.80
75298;BME280;63896;45.990;18.688;2023-09-19T14:52:22;100558.75;;;28.85;41.87
75298;BME280;63896;45.990;18.688;2023-09-19T14:55:24;100560.28;;;28.36;42.39
75298;BME280;63896;45.990;18.688;2023-09-19T14:58:33;100576.13;;;28.05;42.88
75298;BME280;63896;45.990;18.688;2023-09-19T15:01:36;100569.94;;;27.87;43.42
75298;BME280;63896;45.990;18.688;2023-09-19T15:04:38;100572.88;;;27.56;44.93
75298;BME280;63896;45.990;18.688;2023-09-19T15:07:43;100570.47;;;27.55;45.03
75298;BME280;63896;45.990;18.688;2023-09-19T15:10:50;100573.34;;;27.50;45.34
75298;BME280;63896;45.990;18.688;2023-09-19T15:13:56;100575.28;;;27.49;45.23
75298;BME280;63896;45.990;18.688;2023-09-19T15:16:59;100572.22;;;27.25;46.37
75298;BME280;63896;45.990;18.688;2023-09-19T15:20:02;100573.16;;;27.12;47.16
75298;BME280;63896;45.990;18.688;2023-09-19T15:23:09;100578.88;;;26.76;47.91
75298;BME280;63896;45.990;18.688;2023-09-19T15:26:13;100591.97;;;26.65;47.94
75298;BME280;63896;45.990;18.688;2023-09-19T15:29:16;100590.44;;;26.42;48.42
75298;BME280;63896;45.990;18.688;2023-09-19T15:32:20;100589.44;;;26.29;49.45
75298;BME280;63896;45.990;18.688;2023-09-19T15:35:24;100604.63;;;26.22;49.70
75298;BME280;63896;45.990;18.688;2023-09-19T15:38:27;100600.31;;;25.98;50.29
75298;BME280;63896;45.990;18.688;2023-09-19T15:41:49;100609.44;;;26.02;49.79
75298;BME280;63896;45.990;18.688;2023-09-19T15:44:53;100602.97;;;25.90;50.80
75298;BME280;63896;45.990;18.688;2023-09-19T15:47:57;100609.63;;;25.84;51.01
75298;BME280;63896;45.990;18.688;2023-09-19T15:51:03;100609.59;;;25.75;51.09
75298;BME280;63896;45.990;18.688;2023-09-19T15:54:09;100619.31;;;25.68;51.72
75298;BME280;63896;45.990;18.688;2023-09-19T15:57:12;100620.69;;;25.65;52.15
75298;BME280;63896;45.990;18.688;2023-09-19T16:00:16;100621.38;;;25.35;53.09
75298;BME280;63896;45.990;18.688;2023-09-19T16:03:22;100627.53;;;25.27;53.39
75298;BME280;63896;45.990;18.688;2023-09-19T16:06:28;100619.53;;;25.22;53.37
75298;BME280;63896;45.990;18.688;2023-09-19T16:09:31;100626.78;;;25.12;54.07
75298;BME280;63896;45.990;18.688;2023-09-19T16:12:33;100630.69;;;25.06;54.20
75298;BME280;63896;45.990;18.688;2023-09-19T16:15:41;100632.84;;;24.96;54.33
75298;BME280;63896;45.990;18.688;2023-09-19T16:18:50;100630.94;;;24.83;54.56
75298;BME280;63896;45.990;18.688;2023-09-19T16:21:53;100636.66;;;24.67;55.17
75298;BME280;63896;45.990;18.688;2023-09-19T16:24:58;100639.75;;;24.61;55.43
75298;BME280;63896;45.990;18.688;2023-09-19T16:28:00;100645.47;;;24.46;56.42
75298;BME280;63896;45.990;18.688;2023-09-19T16:31:04;100646.34;;;24.28;57.04
75298;BME280;63896;45.990;18.688;2023-09-19T16:34:23;100647.69;;;24.11;58.03